Weather observations for the past three days for
Monticello Regional Airport
Imperial (Metric)
Date Time (cdt) Wind (mph) Vis. (mi.) Weather Sky Cond. Temperature (ºF) Relative Humidity Wind Chill (°F) Heat Index (°F) Pressure Precipitation (in)
Air Dwpt 6 hour altimeter (in) sea level (mb) 1 hr 3 hr 6 hr
Max. Min.
04 13:55 S 5 10.00 Fair CLR 89.6 75.2 63% 100 29.9 0.0
04 13:35 SW 5 10.00 Fair CLR 89.6 75.2 63% 100 29.91 0.0
04 13:15 S 8 10.00 Fair CLR 89.6 73.4 59% 98 29.91 0.0
04 12:55 SW 9 10.00 Fair CLR 91.4 73.4 56% 100 29.91 0.0
04 12:35 SW 8 10.00 Fair CLR 91.4 73.4 56% 100 29.91 0.0
04 12:15 Vrbl 7 10.00 A Few Clouds FEW100 91.4 75.2 59% 103 29.92 0.0
04 11:55 W 8 10.00 NULL NULL 89.6 73.4 59% 98 29.92 0.0
04 11:35 W 9 10.00 A Few Clouds FEW100 91.4 73.4 56% 100 29.92 0.0
04 11:15 SW 12 10.00 Fair CLR 89.6 75.2 63% 100 29.92 0.0
04 10:55 SW 9 10.00 Fair CLR 91.4 75.2 59% 103 29.92 0.0
04 10:35 SW 9 10.00 Fair CLR 89.6 73.4 59% 98 29.92 0.0
04 10:15 SW 7 10.00 Fair CLR 87.8 73.4 62% 96 29.92 0.0
04 09:55 SW 7 10.00 Fair CLR 87.8 73.4 62% 96 29.92 0.0
04 09:35 SW 8 10.00 Fair CLR 86 73.4 66% 93 29.91 0.0
04 09:15 SW 7 10.00 Fair CLR 84.2 73.4 70% 91 29.91 0.0
04 08:55 SW 5 10.00 Fair CLR 82.4 73.4 74% 88 29.9 0.0
04 08:35 SW 5 10.00 Fair CLR 80.6 73.4 79% 85 29.9 0.0
04 08:15 SW 6 10.00 Fair CLR 78.8 73.4 84% 82 29.9 0.0
04 07:55 SW 5 10.00 Fair CLR 77 73.4 89% 78 29.9 0.0
04 07:35 Calm 10.00 Fair CLR 75.2 73.4 94% 74 29.89 0.0
04 07:15 Calm 10.00 Fair CLR 75.2 71.6 89% 75 29.89 0.0
04 06:55 Calm 10.00 Fair CLR 73.4 71.6 94% 29.88 0.0
04 06:35 Calm 10.00 Fair CLR 73.4 71.6 94% 29.88 0.0
04 06:15 Calm 10.00 Fair CLR 73.4 71.6 94% 29.87 0.0
04 05:55 S 5 10.00 Fair CLR 73.4 71.6 94% 29.87 0.0
04 05:35 Calm 10.00 Fair CLR 73.4 73.4 100% 29.88 0.0
04 05:15 Calm 10.00 Fair CLR 73.4 73.4 100% 29.88 0.0
04 04:55 SE 6 10.00 A Few Clouds FEW120 73.4 73.4 100% 29.88 0.0
04 04:35 Calm 10.00 Mostly Cloudy BKN120 73.4 73.4 100% 29.88 0.0
04 04:15 Calm 10.00 Mostly Cloudy BKN120 75.2 73.4 94% 74 29.88 0.0
04 03:55 S 3 10.00 A Few Clouds FEW110 73.4 73.4 100% 29.87 0.0
04 03:35 S 3 10.00 Fair CLR 75.2 73.4 94% 74 29.87 0.0
04 03:15 Calm 10.00 Fair CLR 75.2 73.4 94% 74 29.86 0.0
04 02:55 SE 3 10.00 Fair CLR 75.2 73.4 94% 74 29.86 0.0
04 02:35 S 3 10.00 Fair CLR 75.2 75.2 100% 73 29.86 0.0
04 02:15 S 5 10.00 Fair CLR 75.2 75.2 100% 73 29.86 0.0
04 01:55 SE 5 10.00 Fair CLR 75.2 75.2 100% 73 29.87 0.0
04 01:35 SE 5 10.00 Fair CLR 77 75.2 94% 78 29.88 0.0
04 01:15 SE 5 10.00 Fair CLR 75.2 75.2 100% 73 29.88 0.0
04 00:55 Calm 10.00 Fair CLR 77 75.2 94% 78 29.89 0.0
04 00:35 Calm 10.00 Fair CLR 77 75.2 94% 78 29.89 0.0
04 00:15 S 3 10.00 Fair CLR 77 75.2 94% 78 29.88 0.0
03 23:55 Calm 10.00 Fair CLR 77 77 100% 78 29.88 0.0
03 23:35 SE 3 10.00 Fair CLR 77 77 100% 78 29.88 0.0
03 23:15 SE 5 10.00 Fair CLR 77 77 100% 78 29.88 0.0
03 22:55 SE 5 10.00 Fair CLR 77 75.2 94% 78 29.88 0.0
03 22:35 Calm 10.00 Fair CLR 77 77 100% 78 29.88 0.0
03 22:15 Calm 10.00 Fair CLR 78.8 77 94% 83 29.88 0.0
03 21:55 Calm 10.00 Fair CLR 80.6 77 89% 87 29.88 0.0
03 21:35 SE 3 10.00 Fair CLR 80.6 77 89% 87 29.87 0.0
03 21:15 SE 5 10.00 Fair CLR 80.6 77 89% 87 29.87 0.0
03 20:55 SE 6 10.00 Fair CLR 82.4 77 84% 91 29.86 0.0
03 20:35 SE 5 10.00 Fair CLR 80.6 77 89% 87 29.86 0.0
03 20:15 SE 5 10.00 Fair CLR 82.4 77 84% 91 29.86 0.0
03 19:55 SE 5 10.00 Fair CLR 82.4 77 84% 91 29.85 0.0
03 19:35 SE 6 10.00 Fair CLR 82.4 77 84% 91 29.85 0.0
03 19:15 S 5 10.00 Fair CLR 86 77 75% 97 29.85 0.0
03 18:55 S 5 10.00 Fair CLR 87.8 77 70% 100 29.84 0.0
03 18:35 S 5 10.00 Fair CLR 87.8 77 70% 100 29.83 0.0
03 18:15 SE 6 10.00 Fair CLR 89.6 78.8 71% 105 29.83 0.0
03 17:55 Calm 10.00 Fair CLR 89.6 77 67% 103 29.83 0.0
03 17:35 S 7 10.00 Fair CLR 87.8 75.2 66% 98 29.82 0.0
03 17:15 S 8 10.00 Fair CLR 89.6 75.2 63% 100 29.82 0.0
03 16:55 S 9 10.00 Fair CLR 89.6 75.2 63% 100 29.82 0.0
03 16:35 S 12 10.00 Fair CLR 89.6 75.2 63% 100 29.82 0.0
03 16:15 S 8 10.00 Fair CLR 91.4 73.4 56% 100 29.85 0.0
03 15:55 S 6 G 14 10.00 Fair CLR 91.4 73.4 56% 100 29.86 0.0
03 15:35 SW 6 G 13 10.00 Fair CLR 91.4 75.2 59% 103 29.88 0.0
03 15:15 SW 9 G 16 10.00 Fair CLR 93.2 75.2 56% 105 29.88 0.0
03 14:55 S 8 10.00 Fair CLR 91.4 75.2 59% 103 29.88 0.0
03 14:35 Vrbl 5 G 12 10.00 Fair CLR 91.4 75.2 59% 103 29.88 0.0
03 14:15 S 5 10.00 Fair CLR 89.6 75.2 63% 100 29.89 0.0
03 13:55 Vrbl 7 G 14 10.00 Fair CLR 89.6 73.4 59% 98 29.9 0.0
03 13:35 S 9 10.00 Fair CLR 91.4 77 63% 105 29.89 0.0
03 13:15 SE 7 10.00 Fair CLR 89.6 75.2 63% 100 29.9 0.0
03 12:55 Vrbl 7 10.00 Fair CLR 87.8 75.2 66% 98 29.91 0.0
03 12:35 SE 8 10.00 Fair CLR 87.8 75.2 66% 98 29.91 0.0
03 12:15 Vrbl 5 10.00 Fair CLR 86 75.2 70% 95 29.91 0.0
03 11:55 SE 6 10.00 Fair CLR 84.2 75.2 74% 92 29.92 0.0
03 11:35 S 6 10.00 Fair CLR 86 75.2 70% 95 29.92 0.0
03 11:15 Vrbl 5 10.00 Fair CLR 84.2 75.2 74% 92 29.92 0.0
03 10:55 Vrbl 5 10.00 Fair CLR 84.2 75.2 74% 92 29.92 0.0
03 10:35 E 5 10.00 Fair CLR 82.4 73.4 74% 88 29.92 0.0
03 10:15 Vrbl 5 G 12 10.00 Fair CLR 80.6 73.4 79% 85 29.93 0.0
03 09:55 NE 7 10.00 Fair CLR 80.6 73.4 79% 85 29.93 0.0
03 09:35 NE 7 10.00 Partly Cloudy FEW090 SCT110 78.8 73.4 84% 82 29.93 0.0
03 09:15 Calm 10.00 Mostly Cloudy BKN095 BKN110 78.8 73.4 84% 82 29.93 0.0
03 08:55 N 6 10.00 Mostly Cloudy BKN100 78.8 73.4 84% 82 29.93 0.0
03 08:35 Calm 10.00 A Few Clouds FEW090 FEW110 78.8 75.2 89% 82 29.93 0.0
03 08:15 Calm 8.00 Light Rain BKN100 77 75.2 94% 78 29.94 0.0
03 07:55 NW 6 10.00 Overcast OVC100 77 73.4 89% 78 29.94 0.0
03 07:35 NW 17 G 25 10.00 Overcast OVC100 75.2 73.4 94% 74 29.94 0.0
03 07:15 S 5 10.00 Overcast OVC100 73.4 73.4 100% 29.9 0.0
03 06:55 SE 3 10.00 Mostly Cloudy BKN110 73.4 73.4 100% 29.9 0.0
03 06:35 Calm 10.00 Partly Cloudy SCT120 73.4 73.4 100% 29.89 0.0
03 06:15 Calm 9.00 A Few Clouds FEW100 73.4 73.4 100% 29.89 0.0
03 05:55 Calm 10.00 A Few Clouds FEW095 75.2 73.4 94% 74 0 0.0
03 05:35 SE 5 10.00 A Few Clouds FEW095 75.2 71.6 89% 75 29.88 0.0
03 05:15 S 5 10.00 Fair CLR 75.2 71.6 89% 75 29.88 0.0
03 04:55 S 5 10.00 Fair CLR 75.2 73.4 94% 74 29.88 0.0
03 04:35 S 5 10.00 A Few Clouds FEW095 75.2 73.4 94% 74 29.88 0.0
03 04:15 S 5 10.00 Partly Cloudy SCT095 73.4 73.4 100% 29.88 0.0
03 03:55 Calm 10.00 Fair CLR 73.4 73.4 100% 29.89 0.0
03 03:35 Calm 10.00 Fair CLR 75.2 73.4 94% 74 29.89 0.0
03 03:15 SE 5 10.00 Fair CLR 73.4 73.4 100% 29.88 0.0
03 02:55 Calm 10.00 Fair CLR 75.2 73.4 94% 74 29.88 0.0
03 02:35 Calm 10.00 Fair CLR 75.2 73.4 94% 74 29.88 0.0
03 02:15 Calm 7.00 A Few Clouds FEW100 73.4 73.4 100% 29.88 0.0
03 01:55 Calm 10.00 A Few Clouds FEW100 75.2 73.4 94% 74 29.89 0.0
03 01:35 Calm 10.00 A Few Clouds FEW100 75.2 73.4 94% 74 29.89 0.0
03 01:15 SE 3 10.00 A Few Clouds FEW100 75.2 73.4 94% 74 29.89 0.0
03 00:55 SE 5 7.00 Partly Cloudy SCT100 73.4 73.4 100% 29.89 0.0
03 00:35 S 3 6.00 Fog/Mist BKN110 75.2 75.2 100% 73 29.89 0.0
03 00:15 Calm 5.00 Fog/Mist OVC110 75.2 75.2 100% 73 29.89 0.0
02 23:55 Calm 8.00 Mostly Cloudy BKN100 77 75.2 94% 78 29.89 0.0
02 23:35 E 5 10.00 Overcast OVC100 77 75.2 94% 78 29.89 0.0
02 23:10 E 3 10.00 Mostly Cloudy BKN100 77 75.2 94% 78 29.89 0.0
02 22:55 NE 5 9.00 Mostly Cloudy BKN100 78.8 77 94% 83 29.9 0.0
02 22:35 N 7 9.00 Mostly Cloudy FEW075 BKN100 77 77 100% 78 29.89 0.0
02 22:15 SE 3 9.00 Mostly Cloudy FEW004 SCT070 BKN085 78.8 77 94% 83 29.88 0.0
02 21:55 SE 3 2.50 Light Rain Fog/Mist FEW006 SCT030 BKN055 78.8 77 94% 83 29.89 0.0
02 21:35 N 8 9.00 Mostly Cloudy FEW023 SCT047 BKN060 78.8 78.8 100% 83 29.9 0.0
02 21:15 Calm 6.00 Light Rain Fog/Mist FEW017 BKN055 OVC120 78.8 78.8 100% 83 29.89 0.0
02 20:55 Calm 8.00 Mostly Cloudy SCT085 BKN110 78.8 77 94% 83 29.88 0.0
02 20:35 Calm 9.00 Partly Cloudy SCT110 78.8 77 94% 83 29.88 0.0
02 20:15 Calm 10.00 Fair CLR 78.8 78.8 100% 83 29.86 0.0
02 19:55 NE 5 10.00 A Few Clouds FEW120 80.6 78.8 94% 88 29.85 0.0
02 19:35 Calm 10.00 Fair CLR 80.6 78.8 94% 88 29.85 0.0
02 19:15 SE 5 10.00 Fair CLR 80.6 78.8 94% 88 29.86 0.0
02 18:55 S 5 10.00 Fair CLR 80.6 80.6 100% 89 29.87 0.0
02 18:35 Calm 7.00 Light Rain CLR 82.4 80.6 94% 94 29.88 0.0
02 18:15 Calm 10.00 Fair CLR 84.2 80.6 89% 98 29.87 0.0
02 17:55 Calm 10.00 Fair CLR 84.2 80.6 89% 98 29.88 0.0
02 17:35 Calm 10.00 Fair CLR 87.8 80.6 79% 105 29.88 0.0
02 17:15 Calm 10.00 Fair CLR 87.8 78.8 75% 102 29.88 0.0
02 16:55 Calm 10.00 Fair CLR 89.6 77 67% 103 29.88 0.0
02 16:35 Calm 10.00 Fair CLR 89.6 75.2 63% 100 29.88 0.0
02 16:15 NE 3 10.00 Fair CLR 91.4 71.6 52% 99 29.89 0.0
02 15:55 NE 6 10.00 Fair CLR 91.4 71.6 52% 99 29.89 0.0
02 15:35 N 5 10.00 Fair CLR 91.4 71.6 52% 99 29.9 0.0
02 15:15 Calm 10.00 Fair CLR 91.4 73.4 56% 100 29.9 0.0
02 14:55 Calm 10.00 Fair CLR 93.2 73.4 53% 103 29.9 0.0
02 14:35 W 6 10.00 A Few Clouds FEW110 91.4 73.4 56% 100 29.91 0.0
02 14:15 W 6 G 12 10.00 Fair CLR 91.4 73.4 56% 100 29.91 0.0
02 13:55 Vrbl 3 G 12 10.00 Fair CLR 91.4 73.4 56% 100 29.91 0.0
02 13:35 Vrbl 6 G 12 10.00 Fair CLR 91.4 73.4 56% 100 29.91 0.0
02 13:15 S 6 10.00 Fair CLR 89.6 75.2 63% 100 29.91 0.0
02 12:55 Vrbl 6 10.00 Fair CLR 89.6 75.2 63% 100 29.92 0.0
02 12:35 SW 6 10.00 Fair CLR 89.6 73.4 59% 98 29.93 0.0
02 12:15 S 6 10.00 Fair CLR 87.8 73.4 62% 96 29.93 0.0
02 11:55 SW 3 10.00 Fair CLR 87.8 73.4 62% 96 29.93 0.0
02 11:35 Vrbl 3 10.00 Fair CLR 86 73.4 66% 93 29.94 0.0
02 11:15 Calm 10.00 Fair CLR 86 73.4 66% 93 29.94 0.0
02 10:55 Calm 10.00 Fair CLR 86 73.4 66% 93 29.93 0.0
02 10:35 Calm 10.00 Fair CLR 84.2 73.4 70% 91 29.93 0.0
02 10:15 S 8 10.00 Fair CLR 82.4 73.4 74% 88 29.92 0.0
02 09:55 SW 5 10.00 Fair CLR 80.6 71.6 74% 85 29.92 0.0
02 09:35 Calm 10.00 Fair CLR 80.6 71.6 74% 85 29.93 0.0
02 09:15 Calm 10.00 Fair CLR 78.8 71.6 79% 82 29.93 0.0
02 08:55 SW 5 10.00 Fair CLR 80.6 71.6 74% 85 29.92 0.0
02 08:35 Calm 10.00 Fair CLR 78.8 71.6 79% 82 29.93 0.0
02 08:15 S 5 10.00 Fair CLR 75.2 71.6 89% 75 29.92 0.0
02 07:55 Calm 10.00 Fair CLR 75.2 71.6 89% 75 29.94 0.0
02 07:35 SE 5 10.00 A Few Clouds FEW100 75.2 71.6 89% 75 29.94 0.0
02 07:15 Calm 9.00 Partly Cloudy SCT100 71.6 69.8 94% 29.94 0.0
02 06:55 Calm 10.00 Fair CLR 71.6 69.8 94% 29.94 0.0
02 06:35 Calm 10.00 Partly Cloudy SCT100 SCT120 71.6 69.8 94% 29.94 0.0
02 06:15 Calm 10.00 Overcast BKN100 OVC120 73.4 69.8 89% 29.93 0.0
02 05:55 NW 5 10.00 Overcast BKN095 OVC110 75.2 69.8 83% 75 29.93 0.0
02 05:35 Vrbl 6 G 15 10.00 Overcast OVC090 73.4 69.8 89% 29.92 0.0
02 05:15 Calm 10.00 Mostly Cloudy BKN090 71.6 69.8 94% 29.91 0.0
02 04:55 Calm 10.00 Partly Cloudy SCT080 71.6 69.8 94% 29.91 0.0
02 04:35 Calm 10.00 Mostly Cloudy BKN085 71.6 69.8 94% 29.91 0.0
02 04:15 S 3 10.00 Mostly Cloudy BKN085 BKN110 71.6 69.8 94% 29.92 0.0
02 03:55 Calm 10.00 Overcast BKN090 OVC110 71.6 69.8 94% 29.93 0.0
02 03:35 Calm 10.00 Overcast BKN090 OVC110 73.4 69.8 89% 29.92 0.0
02 03:15 S 3 10.00 Partly Cloudy SCT110 73.4 69.8 89% 29.92 0.0
02 02:55 S 5 10.00 Partly Cloudy SCT110 73.4 69.8 89% 29.91 0.0
02 02:35 S 5 10.00 Mostly Cloudy BKN110 73.4 69.8 89% 29.91 0.0
02 02:15 S 5 10.00 Partly Cloudy SCT100 75.2 69.8 83% 75 29.91 0.0
02 01:55 S 3 10.00 Mostly Cloudy BKN100 73.4 71.6 94% 29.9 0.0
02 01:35 S 3 10.00 Mostly Cloudy BKN100 73.4 71.6 94% 29.91 0.0
02 01:15 Calm 10.00 Partly Cloudy SCT095 73.4 71.6 94% 29.91 0.0
02 00:55 S 3 10.00 A Few Clouds FEW095 73.4 71.6 94% 29.91 0.0
02 00:35 Calm 10.00 Fair CLR 73.4 71.6 94% 29.91 0.0
02 00:15 Calm 10.00 Fair CLR 75.2 71.6 89% 75 29.91 0.0
01 23:55 Calm 10.00 Fair CLR 75.2 71.6 89% 75 29.91 0.0
01 23:35 Calm 10.00 Fair CLR 75.2 73.4 94% 74 29.92 0.0
01 23:15 Calm 10.00 Fair CLR 73.4 73.4 100% 29.92 0.0
01 22:55 Calm 10.00 Fair CLR 73.4 73.4 100% 29.92 0.0
01 22:35 Calm 10.00 Fair CLR 75.2 73.4 94% 74 29.92 0.0
01 22:15 Calm 10.00 Fair CLR 73.4 73.4 100% 29.92 0.0
01 21:55 Calm 9.00 Fair CLR 75.2 73.4 94% 74 29.91 0.0
01 21:35 Calm 9.00 Fair CLR 75.2 73.4 94% 74 29.91 0.0
01 21:15 Calm 10.00 Fair CLR 75.2 75.2 100% 73 29.91 0.0
01 20:55 Calm 9.00 Fair CLR 75.2 75.2 100% 73 29.91 0.0
01 20:35 Calm 10.00 Fair CLR 77 77 100% 78 29.9 0.0
01 20:15 Calm 10.00 Fair CLR 80.6 77 89% 87 29.9 0.0
01 19:55 Calm 10.00 Fair CLR 80.6 77 89% 87 29.9 0.0
01 19:35 Calm 10.00 Fair CLR 82.4 77 84% 91 29.9 0.0
01 19:15 S 3 10.00 Fair CLR 84.2 78.8 84% 96 29.9 0.0
01 18:55 S 3 10.00 Fair CLR 87.8 78.8 75% 102 29.9 0.0
01 18:35 S 5 10.00 Fair CLR 89.6 77 67% 103 29.9 0.0
01 18:15 SW 5 10.00 Fair CLR 91.4 77 63% 105 29.9 0.0
01 17:55 S 6 10.00 Fair CLR 91.4 77 63% 105 29.9 0.0
01 17:35 S 7 10.00 Fair CLR 91.4 77 63% 105 29.9 0.0
01 17:15 SW 7 10.00 Fair CLR 91.4 77 63% 105 29.9 0.0
01 16:55 S 6 10.00 Fair CLR 93.2 77 59% 107 29.9 0.0
01 16:35 S 6 10.00 Fair CLR 93.2 75.2 56% 105 29.9 0.0
01 16:15 S 9 10.00 Fair CLR 93.2 75.2 56% 105 29.91 0.0
01 15:55 S 8 10.00 Fair CLR 93.2 75.2 56% 105 29.91 0.0
01 15:35 S 6 10.00 Fair CLR 93.2 77 59% 107 29.91 0.0
01 15:15 S 7 10.00 Fair CLR 93.2 77 59% 107 29.92 0.0
01 14:55 SW 7 10.00 Fair CLR 91.4 77 63% 105 29.92 0.0
01 14:35 Vrbl 7 10.00 Fair CLR 91.4 77 63% 105 29.93 0.0
01 14:15 S 6 10.00 Fair CLR 91.4 77 63% 105 29.93 0.0
Date Time (cdt) Wind (mph) Vis. (mi.) Weather Sky Cond. Air Dwpt Max. Min. Relative Humidity Wind Chill (°F) Heat Index (°F) altimeter (in) sea level (mb) 1 hr 3 hr 6 hr
6 hour
Temperature (ºF) Pressure Precipitation (in)